Tidehead, Canada
Current Conditions -  °F | °C
As of 3:00 AM on Thursday 23 Oct 2014 (Local Time) from CZBF Reporting Station
Overcast Overcast  
Wind Chill: 37°   Ceiling: 800
Heat Index: 43°   Visibility: 15mi
Dew Point: 39°   Wind: 9mph
Humidity: 87%   Direction: 50°NE
Pressure: 30.37"   Gusts: NA
Location:  47.98°N, 66.79°W
Report Text: CZBF 230600Z 05008KT 15SM OVC008 06/04 A3037 RMK SC8 SLP287
Loading
Personal Weather Stations






























Interactive Weather Map
Tropical Storm Tracking
New forecast layout! Learn more

10-Day Weather Forecast

Advertisements
Track Severe Weather on mobile